Terminal Aerodrome Forecast
Issued by NWS

Home | Current Version | Previous Version | Text Only | Print | Product List | Glossary On
Versions: 1 2 3 4 5 6 7 8 9 10 11 12 13 14 15 16 17 18 19 20 21 22 23 24 25 26 27 28
979
FTUS43 KGRB 280240 AAB
TAFAUW
TAF AMD
KAUW 280240Z 2803/2824 09009KT 5SM BR SCT007 OVC040
      TEMPO 2803/2806 1SM BR BKN007
     FM280900 13004KT 3SM BR OVC003
     FM281500 16008KT P6SM VCSH OVC003
     FM281600 17008KT P6SM VCSH OVC008
     FM281700 17009KT P6SM VCSH BKN015
     FM281900 18010KT P6SM VCSH BKN040=

USA.gov is the U.S. government's official web portal to all federal, state and local government web resources and services.